createdAt,value
2023-04-01T01:32:10.950Z,973.61
2023-04-01T01:33:10.994Z,973.52
2023-04-01T01:34:10.705Z,973.51
2023-04-01T01:35:10.628Z,973.57
2023-04-01T01:36:10.578Z,973.57
2023-04-01T01:37:10.512Z,973.49
2023-04-01T01:38:10.426Z,973.54
2023-04-01T01:39:10.296Z,973.52
2023-04-01T01:40:10.214Z,973.34
2023-04-01T01:41:10.134Z,973.43
2023-04-01T01:42:10.061Z,973.45
2023-04-01T01:43:09.966Z,973.41
2023-04-01T01:44:09.885Z,973.43
2023-04-01T01:45:09.805Z,973.46
2023-04-01T01:46:09.739Z,973.45
2023-04-01T01:47:09.638Z,973.37
2023-04-01T01:48:09.642Z,973.51
2023-04-01T01:49:09.475Z,973.47
2023-04-01T01:50:09.405Z,973.55
2023-04-01T01:51:09.310Z,973.42
2023-04-01T01:52:09.240Z,973.51
2023-04-01T01:53:09.146Z,973.50
2023-04-01T01:54:09.067Z,973.38
2023-04-01T01:55:08.982Z,973.50
2023-04-01T01:56:08.907Z,973.49
2023-04-01T01:57:08.921Z,973.33
2023-04-01T01:58:08.741Z,973.48
2023-04-01T01:59:08.673Z,973.43
2023-04-01T02:00:08.584Z,973.43
2023-04-01T02:01:08.502Z,973.33
2023-04-01T02:02:08.421Z,973.40
2023-04-01T02:03:08.389Z,973.44
2023-04-01T02:04:08.280Z,973.43
2023-04-01T02:05:08.165Z,973.35
2023-04-01T02:06:08.086Z,973.39
2023-04-01T02:07:07.996Z,973.47
2023-04-01T02:08:07.924Z,973.39
2023-04-01T02:09:07.857Z,973.38
2023-04-01T02:10:07.755Z,973.38
2023-04-01T02:11:07.672Z,973.48
2023-04-01T02:12:07.594Z,973.34
2023-04-01T02:13:07.506Z,973.42
2023-04-01T02:14:07.433Z,973.40
2023-04-01T02:15:07.368Z,973.45
2023-04-01T02:16:07.315Z,973.34
2023-04-01T02:17:07.187Z,973.43
2023-04-01T02:18:07.147Z,973.49
2023-04-01T02:19:07.014Z,973.44
2023-04-01T02:20:06.957Z,973.28
2023-04-01T02:21:06.851Z,973.31
2023-04-01T02:22:06.789Z,973.34
2023-04-01T02:23:06.686Z,973.40
2023-04-01T02:24:06.615Z,973.27
2023-04-01T02:25:06.535Z,973.34
2023-04-01T02:26:06.445Z,973.34
2023-04-01T02:27:06.359Z,973.34
2023-04-01T02:28:06.277Z,973.39
2023-04-01T02:29:06.196Z,973.36
2023-04-01T02:30:06.415Z,973.32
2023-04-01T02:31:06.097Z,973.37
2023-04-01T02:32:05.951Z,973.40
2023-04-01T02:33:05.939Z,973.46
2023-04-01T02:34:05.791Z,973.33
2023-04-01T02:35:05.719Z,973.35
2023-04-01T02:36:05.706Z,973.37
2023-04-01T02:37:05.541Z,973.46
2023-04-01T02:38:05.463Z,973.27
2023-04-01T02:39:05.421Z,973.39
2023-04-01T02:40:05.301Z,973.32
2023-04-01T02:41:05.214Z,973.35
2023-04-01T02:42:05.189Z,973.31
2023-04-01T02:43:05.057Z,973.33
2023-04-01T02:44:04.970Z,973.35
2023-04-01T02:45:04.994Z,973.38
2023-04-01T02:46:04.808Z,973.39
2023-04-01T02:47:04.884Z,973.33
2023-04-01T02:48:04.684Z,973.37
2023-04-01T02:49:04.563Z,973.37
2023-04-01T02:50:04.493Z,973.40
2023-04-01T02:51:04.402Z,973.38
2023-04-01T02:52:04.356Z,973.36
2023-04-01T02:53:04.243Z,973.50
2023-04-01T02:54:04.162Z,973.44
2023-04-01T02:55:04.079Z,973.47
2023-04-01T02:56:03.992Z,973.32
2023-04-01T02:57:03.972Z,973.53
2023-04-01T02:58:03.837Z,973.51
2023-04-01T02:59:03.746Z,973.56
2023-04-01T03:00:03.666Z,973.45
2023-04-01T03:01:03.634Z,973.41
2023-04-01T03:02:03.514Z,973.52
2023-04-01T03:03:03.528Z,973.47
2023-04-01T03:04:03.344Z,973.45
2023-04-01T03:05:03.259Z,973.33
2023-04-01T03:06:03.180Z,973.46
2023-04-01T03:07:03.093Z,973.44
2023-04-01T03:08:03.032Z,973.41
2023-04-01T03:09:02.930Z,973.52
2023-04-01T03:10:02.868Z,973.36
2023-04-01T03:11:02.770Z,973.39
2023-04-01T03:12:02.693Z,973.41
2023-04-01T03:13:02.613Z,973.32
2023-04-01T03:14:02.529Z,973.41
2023-04-01T03:15:13.933Z,973.35
2023-04-01T03:16:02.375Z,973.46
2023-04-01T03:17:02.352Z,973.46
2023-04-01T03:18:02.264Z,973.33
2023-04-01T03:19:02.120Z,973.40
2023-04-01T03:20:02.044Z,973.38
2023-04-01T03:21:01.950Z,973.43
2023-04-01T03:22:01.876Z,973.45
2023-04-01T03:23:01.784Z,973.37
2023-04-01T03:24:01.723Z,973.40
2023-04-01T03:25:01.664Z,973.49
2023-04-01T03:26:01.541Z,973.40
2023-04-01T03:27:01.453Z,973.21
2023-04-01T03:28:01.379Z,973.32
2023-04-01T03:29:01.305Z,973.31
2023-04-01T03:30:01.239Z,973.33
2023-04-01T03:31:01.162Z,973.27
2023-04-01T03:32:01.044Z,973.51
2023-04-01T03:33:01.016Z,973.36
2023-04-01T03:34:00.892Z,973.33
2023-04-01T03:35:00.805Z,973.40
2023-04-01T03:36:00.768Z,973.37
2023-04-01T03:37:00.648Z,973.36
2023-04-01T03:38:00.553Z,973.39
2023-04-01T03:39:00.477Z,973.39
2023-04-01T03:40:00.413Z,973.39
2023-04-01T03:41:00.310Z,973.49
2023-04-01T03:42:00.234Z,973.44
2023-04-01T03:43:00.247Z,973.49
2023-04-01T03:44:00.114Z,973.46
2023-04-01T03:44:59.979Z,973.43
2023-04-01T03:45:59.944Z,973.39
2023-04-01T03:46:59.821Z,973.40
2023-04-01T03:47:59.773Z,973.47
2023-04-01T03:48:59.652Z,973.42
2023-04-01T03:49:59.570Z,973.47
2023-04-01T03:50:59.492Z,973.42
2023-04-01T03:51:59.407Z,973.45
2023-04-01T03:52:59.579Z,973.45
2023-04-01T03:53:59.247Z,973.38
2023-04-01T03:54:59.163Z,973.44
2023-04-01T03:55:59.103Z,973.50
2023-04-01T03:56:59.114Z,973.40
2023-04-01T03:57:58.918Z,973.52
2023-04-01T03:58:58.836Z,973.40
2023-04-01T03:59:59.158Z,973.40
2023-04-01T04:00:58.674Z,973.37
2023-04-01T04:01:58.743Z,973.45
2023-04-01T04:02:58.528Z,973.42
2023-04-01T04:05:58.318Z,973.38
2023-04-01T04:06:58.181Z,973.43
2023-04-01T04:07:58.501Z,973.44
2023-04-01T04:08:58.025Z,973.35
2023-04-01T04:09:58.387Z,973.45
2023-04-01T04:10:57.883Z,973.42
2023-04-01T04:11:57.791Z,973.40
2023-04-01T04:12:57.698Z,973.34
2023-04-01T04:13:58.434Z,973.41
2023-04-01T04:14:57.528Z,973.31
2023-04-01T04:15:57.475Z,973.46
2023-04-01T04:16:57.367Z,973.46
2023-04-01T04:17:57.389Z,973.47
2023-04-01T04:18:57.528Z,973.50
2023-04-01T04:19:57.124Z,973.40
2023-04-01T04:20:57.078Z,973.42
2023-04-01T04:21:56.956Z,973.38
2023-04-01T04:22:56.873Z,973.54
2023-04-01T04:23:56.816Z,973.35
2023-04-01T04:24:56.712Z,973.40
2023-04-01T04:25:56.626Z,973.36
2023-04-01T04:26:56.544Z,973.36
2023-04-01T04:27:56.485Z,973.34
2023-04-01T04:28:56.403Z,973.45
2023-04-01T04:29:56.307Z,973.32
2023-04-01T04:30:56.219Z,973.24
2023-04-01T04:31:56.239Z,973.33
2023-04-01T04:32:56.160Z,973.37
2023-04-01T04:33:55.972Z,973.22
2023-04-01T04:34:55.886Z,973.33
2023-04-01T04:35:55.850Z,973.26
2023-04-01T04:36:55.734Z,973.25
2023-04-01T04:37:55.643Z,973.29
2023-04-01T04:38:55.572Z,973.33
2023-04-01T04:39:55.485Z,973.31
2023-04-01T04:40:55.400Z,973.24
2023-04-01T04:41:55.315Z,973.23
2023-04-01T04:42:55.337Z,973.29
2023-04-01T04:43:55.217Z,973.23
2023-04-01T04:44:55.117Z,973.26
2023-04-01T04:47:55.035Z,973.26
2023-04-01T04:49:56.165Z,973.25
2023-04-01T04:51:54.509Z,973.25
2023-04-01T04:52:54.411Z,973.21
2023-04-01T04:53:54.333Z,973.19
2023-04-01T04:54:54.255Z,973.17
2023-04-01T04:55:54.171Z,973.19
2023-04-01T04:56:54.214Z,973.23
2023-04-01T04:57:54.008Z,973.21
2023-04-01T04:58:53.955Z,973.18
2023-04-01T04:59:53.867Z,973.12
2023-04-01T05:00:53.822Z,973.09
2023-04-01T05:01:53.674Z,973.17
2023-04-01T05:02:53.654Z,973.23
2023-04-01T05:03:53.513Z,973.15
2023-04-01T05:04:53.434Z,973.17
2023-04-01T05:05:53.664Z,973.10
2023-04-01T05:06:53.274Z,973.33
2023-04-01T05:07:53.189Z,973.17
2023-04-01T05:08:53.105Z,973.16
2023-04-01T05:09:53.021Z,973.17
2023-04-01T05:10:53.440Z,973.21
2023-04-01T05:11:52.856Z,973.17
2023-04-01T05:12:52.802Z,973.14
2023-04-01T05:13:52.693Z,973.25
2023-04-01T05:14:52.618Z,973.15
2023-04-01T05:15:52.554Z,973.21
2023-04-01T05:16:52.512Z,973.24
2023-04-01T05:17:52.627Z,973.18
2023-04-01T05:18:52.292Z,973.19
2023-04-01T05:19:52.204Z,973.12
2023-04-01T05:20:52.119Z,973.13
2023-04-01T05:21:52.042Z,973.14
2023-04-01T05:22:51.972Z,973.11
2023-04-01T05:23:51.874Z,973.09
2023-04-01T05:24:51.791Z,973.15
2023-04-01T05:25:51.709Z,973.17
2023-04-01T05:26:51.627Z,973.21
2023-04-01T05:27:51.544Z,973.12
2023-04-01T05:28:51.463Z,973.22
2023-04-01T05:29:51.380Z,973.23
2023-04-01T05:30:51.351Z,973.19
2023-04-01T05:31:51.243Z,973.18
2023-04-01T05:32:51.147Z,973.26
2023-04-01T05:33:51.055Z,973.22
2023-04-01T05:34:50.969Z,973.26
2023-04-01T05:35:51.020Z,973.12
2023-04-01T05:36:50.806Z,973.24
2023-04-01T05:37:50.731Z,973.18
2023-04-01T05:38:50.644Z,973.15
2023-04-01T05:39:50.561Z,973.16
2023-04-01T05:40:50.487Z,973.09
2023-04-01T05:41:50.399Z,973.23
2023-04-01T05:42:50.318Z,973.23
2023-04-01T05:43:50.235Z,973.22
2023-04-01T05:44:50.155Z,973.11
2023-04-01T05:45:50.101Z,973.08
2023-04-01T05:46:49.994Z,973.17
2023-04-01T05:47:50.023Z,973.14
2023-04-01T05:48:49.826Z,973.20
2023-04-01T05:49:49.744Z,973.11
2023-04-01T05:50:49.663Z,973.14
2023-04-01T05:51:49.576Z,973.24
2023-04-01T05:52:49.495Z,973.16
2023-04-01T05:53:49.416Z,973.16
2023-04-01T05:54:49.335Z,973.22
2023-04-01T05:55:49.245Z,973.24
2023-04-01T05:56:49.280Z,973.16
2023-04-01T05:57:49.079Z,973.25
2023-04-01T05:58:48.997Z,973.21
2023-04-01T05:59:48.915Z,973.20
2023-04-01T06:00:55.993Z,973.13
2023-04-01T06:01:48.749Z,973.21
2023-04-01T06:02:48.815Z,973.15
2023-04-01T06:03:48.920Z,973.19
2023-04-01T06:04:48.553Z,973.20
2023-04-01T06:05:48.423Z,973.20
2023-04-01T06:06:48.461Z,973.18
2023-04-01T06:07:48.259Z,973.25
2023-04-01T06:08:48.175Z,973.19
2023-04-01T06:09:48.093Z,973.14
2023-04-01T06:10:48.007Z,973.19
2023-04-01T06:11:47.926Z,973.27
2023-04-01T06:12:47.847Z,973.23
2023-04-01T06:13:47.760Z,973.15
2023-04-01T06:14:48.080Z,973.14
2023-04-01T06:15:47.597Z,973.25
2023-04-01T06:16:47.516Z,973.17
2023-04-01T06:17:47.512Z,973.19
2023-04-01T06:18:47.355Z,973.21
2023-04-01T06:19:47.296Z,973.19
2023-04-01T06:20:47.187Z,973.23
2023-04-01T06:21:47.110Z,973.18
2023-04-01T06:22:47.051Z,973.28
2023-04-01T06:23:47.335Z,973.38
2023-04-01T06:24:46.870Z,973.20
2023-04-01T06:25:46.773Z,973.23
2023-04-01T06:26:46.710Z,973.21
2023-04-01T06:27:46.611Z,973.24
2023-04-01T06:28:46.594Z,973.16
2023-04-01T06:29:46.733Z,973.17
2023-04-01T06:30:46.370Z,973.21
2023-04-01T06:31:46.321Z,973.18
2023-04-01T06:32:46.335Z,973.19
2023-04-01T06:33:46.320Z,973.15
2023-04-01T06:34:46.048Z,973.22
2023-04-01T06:35:46.044Z,973.17
2023-04-01T06:36:45.913Z,973.23
2023-04-01T06:37:45.823Z,973.18
2023-04-01T06:38:45.894Z,973.17
2023-04-01T06:39:45.632Z,973.24
2023-04-01T06:40:45.571Z,973.20
2023-04-01T06:41:45.481Z,973.23
2023-04-01T06:42:45.391Z,973.22
2023-04-01T06:43:45.305Z,973.25
2023-04-01T06:44:45.221Z,973.25
2023-04-01T06:45:45.375Z,973.22
2023-04-01T06:46:45.082Z,973.23
2023-04-01T06:47:45.795Z,973.22
2023-04-01T06:48:44.905Z,973.23
2023-04-01T06:49:44.812Z,973.25
2023-04-01T06:50:44.730Z,973.24
2023-04-01T06:51:44.679Z,973.30
2023-04-01T06:52:44.566Z,973.25
2023-04-01T06:53:44.485Z,973.21
2023-04-01T06:54:44.402Z,973.16
2023-04-01T06:55:44.319Z,973.21
2023-04-01T06:56:44.241Z,973.20
2023-04-01T06:57:44.163Z,973.24
2023-04-01T06:58:44.099Z,973.14
2023-04-01T06:59:43.992Z,973.23
2023-04-01T07:00:44.212Z,973.25
2023-04-01T07:01:43.933Z,973.14
2023-04-01T07:02:43.776Z,973.22
2023-04-01T07:03:43.669Z,973.30
2023-04-01T07:49:50.074Z,973.48
2023-04-01T07:50:51.899Z,973.45
2023-04-01T07:51:50.251Z,973.49
2023-04-01T07:52:49.803Z,973.42
2023-04-01T07:53:49.728Z,973.45
2023-04-01T07:54:49.644Z,973.43
2023-04-01T07:55:49.558Z,973.47
2023-04-01T07:56:49.611Z,973.45
2023-04-01T07:57:49.396Z,973.49
2023-04-01T07:58:49.314Z,973.46
2023-04-01T07:59:49.232Z,973.44
2023-04-01T08:00:49.148Z,973.47
2023-04-01T08:01:49.075Z,973.45
2023-04-01T08:02:49.121Z,973.49
2023-04-01T08:03:49.345Z,973.36
2023-04-01T08:04:48.880Z,973.48
2023-04-01T08:05:48.761Z,973.45
2023-04-01T08:06:48.658Z,973.43
2023-04-01T08:07:48.577Z,973.44
2023-04-01T08:08:48.497Z,973.48
2023-04-01T08:09:48.465Z,973.48
2023-04-01T08:10:48.342Z,973.53
2023-04-01T08:11:48.252Z,973.56
2023-04-01T08:12:48.166Z,973.46
2023-04-01T08:13:48.089Z,973.50
2023-04-01T08:14:48.003Z,973.43
2023-04-01T08:15:48.301Z,973.61
2023-04-01T08:16:47.840Z,973.45
2023-04-01T08:17:47.804Z,973.46
2023-04-01T08:18:47.708Z,973.49
2023-04-01T08:19:47.623Z,973.56
2023-04-01T08:20:47.514Z,973.54
2023-04-01T08:21:47.452Z,973.49
2023-04-01T08:22:47.348Z,973.62
2023-04-01T08:23:47.289Z,973.57
2023-04-01T08:24:48.316Z,973.64
2023-04-01T09:02:35.960Z,973.77
2023-04-01T09:03:35.867Z,973.76
2023-04-01T09:04:35.722Z,973.79
2023-04-01T09:05:35.701Z,973.73
2023-04-01T09:06:35.507Z,973.82
2023-04-01T09:07:35.426Z,973.79
2023-04-01T09:08:35.343Z,973.76
2023-04-01T09:09:35.260Z,973.80
2023-04-01T09:10:35.188Z,973.84
2023-04-01T09:11:35.121Z,973.84
2023-04-01T09:12:35.070Z,973.81
2023-04-01T09:13:34.936Z,973.85
2023-04-01T09:14:34.872Z,973.84
2023-04-01T09:15:35.118Z,973.84
2023-04-01T09:16:34.863Z,973.94
2023-04-01T09:18:17.283Z,973.84
2023-04-01T09:19:17.012Z,973.93
2023-04-01T09:20:16.935Z,973.93
2023-04-01T09:21:16.854Z,973.91
2023-04-01T09:22:16.770Z,973.91
2023-04-01T09:23:16.700Z,973.93
2023-04-01T09:24:16.611Z,973.97
2023-04-01T09:25:16.557Z,973.96
2023-04-01T09:26:16.454Z,973.97
2023-04-01T09:27:16.367Z,973.96
2023-04-01T09:28:16.292Z,973.96
2023-04-01T09:29:16.228Z,974.03
2023-04-01T09:30:16.126Z,973.95
2023-04-01T09:31:16.084Z,973.95
2023-04-01T09:32:15.964Z,973.95
2023-04-01T09:33:15.878Z,973.95
2023-04-01T09:34:15.820Z,973.99
2023-04-01T09:35:15.719Z,973.95
2023-04-01T09:36:15.675Z,973.93
2023-04-01T09:37:15.553Z,973.97
2023-04-01T09:38:15.476Z,973.96
2023-04-01T09:39:15.396Z,973.89
2023-04-01T09:40:15.314Z,974.01
2023-04-01T09:41:15.633Z,974.01
2023-04-01T09:42:15.207Z,973.98
2023-04-01T09:43:15.076Z,974.00
2023-04-01T09:44:15.144Z,974.00
2023-04-01T09:45:15.159Z,973.95
2023-04-01T09:46:15.148Z,973.98
2023-04-01T09:47:14.747Z,973.98
2023-04-01T09:48:14.687Z,974.00
2023-04-01T09:49:14.586Z,973.95
2023-04-01T09:50:14.545Z,974.01
2023-04-01T09:51:14.423Z,974.03
2023-04-01T09:52:14.346Z,973.99
2023-04-01T09:53:14.260Z,974.03
2023-04-01T09:54:14.188Z,973.98
2023-04-01T09:55:14.124Z,974.07
2023-04-01T09:56:14.019Z,974.06
2023-04-01T09:57:13.965Z,974.05
2023-04-01T09:58:13.856Z,974.06
2023-04-01T09:59:13.775Z,974.10
2023-04-01T10:00:13.700Z,974.03
2023-04-01T10:01:13.612Z,974.12
2023-04-01T10:02:13.531Z,974.09
2023-04-01T10:03:13.486Z,974.09
2023-04-01T10:04:13.370Z,974.15
2023-04-01T10:05:13.323Z,974.14
2023-04-01T10:06:13.295Z,974.13
2023-04-01T10:07:13.180Z,974.16
2023-04-01T10:08:13.042Z,974.14
2023-04-01T10:09:12.975Z,974.11
2023-04-01T10:10:12.881Z,974.10
2023-04-01T10:11:12.802Z,974.14
2023-04-01T10:12:12.720Z,974.04
2023-04-01T10:13:12.835Z,974.14
2023-04-01T10:14:13.773Z,974.06
2023-04-01T10:15:12.503Z,974.15
2023-04-01T10:16:12.418Z,974.17
2023-04-01T10:17:12.353Z,974.16
2023-04-01T10:18:12.228Z,974.17
2023-04-01T10:19:12.149Z,974.19
2023-04-01T10:20:12.536Z,974.17
2023-04-01T10:21:11.986Z,974.16
2023-04-01T10:22:11.927Z,974.14
2023-04-01T10:23:11.823Z,974.14
2023-04-01T10:24:11.746Z,974.13
2023-04-01T10:25:11.660Z,974.12
2023-04-01T10:26:11.585Z,974.13
2023-04-01T10:27:11.498Z,974.17
2023-04-01T10:28:11.416Z,974.16
2023-04-01T10:29:11.353Z,974.15
2023-04-01T10:30:11.255Z,974.08
2023-04-01T10:31:11.176Z,974.15
2023-04-01T10:32:11.113Z,974.15
2023-04-01T10:33:11.030Z,974.10
2023-04-01T10:34:10.929Z,974.14
2023-04-01T10:35:10.947Z,974.19
2023-04-01T10:36:10.866Z,974.21
2023-04-01T10:37:10.681Z,974.18
2023-04-01T10:38:10.628Z,974.22
2023-04-01T10:39:10.521Z,974.17
2023-04-01T10:40:10.447Z,974.19
2023-04-01T10:41:10.363Z,974.18
2023-04-01T10:42:10.279Z,974.19
2023-04-01T10:43:10.197Z,974.25
2023-04-01T10:44:52.594Z,974.16
2023-04-01T10:45:52.524Z,974.14
2023-04-01T10:46:52.485Z,974.16
2023-04-01T10:47:52.395Z,974.19
2023-04-01T10:48:52.277Z,974.18
2023-04-01T10:49:52.209Z,974.17
2023-04-01T10:50:52.124Z,974.16
2023-04-01T10:51:52.031Z,974.16
2023-04-01T10:52:52.016Z,974.19
2023-04-01T10:53:51.896Z,974.16
2023-04-01T10:54:51.811Z,974.15
2023-04-01T10:55:51.710Z,974.21
2023-04-01T10:56:51.679Z,974.20
2023-04-01T10:57:51.559Z,974.24
2023-04-01T10:58:51.473Z,974.19
2023-04-01T10:59:51.391Z,974.28
2023-04-01T11:00:51.349Z,974.18
2023-04-01T11:02:04.078Z,974.25
2023-04-01T11:02:51.225Z,974.25
2023-04-01T11:03:51.162Z,974.24
2023-04-01T11:04:50.987Z,974.21
2023-04-01T11:05:50.917Z,974.24
2023-04-01T11:06:50.824Z,974.23
2023-04-01T11:08:02.815Z,974.22
2023-04-01T11:08:50.671Z,974.23
2023-04-01T11:09:50.639Z,974.24
2023-04-01T11:10:50.550Z,974.26
2023-04-01T11:11:50.420Z,974.29
2023-04-01T11:12:50.349Z,974.19
2023-04-01T11:13:50.256Z,974.31
2023-04-01T11:14:50.178Z,974.28
2023-04-01T11:15:50.103Z,974.20
2023-04-01T11:16:50.016Z,974.24
2023-04-01T11:17:51.005Z,974.25
2023-04-01T11:18:49.884Z,974.25
2023-04-01T11:19:49.782Z,974.28
2023-04-01T11:20:49.697Z,974.27
2023-04-01T11:21:49.614Z,974.33
2023-04-01T11:22:49.540Z,974.29
2023-04-01T11:24:03.880Z,974.33
2023-04-01T11:24:49.375Z,974.27
2023-04-01T11:25:49.313Z,974.38
2023-04-01T11:26:49.256Z,974.26
2023-04-01T11:27:49.141Z,974.27
2023-04-01T11:28:49.049Z,974.30
2023-04-01T11:29:59.254Z,974.29
2023-04-01T11:30:48.887Z,974.28
2023-04-01T11:31:48.871Z,974.36
2023-04-01T11:32:48.757Z,974.38
2023-04-01T11:33:48.647Z,974.43
2023-04-01T11:34:48.822Z,974.40
2023-04-01T11:35:48.484Z,974.41
2023-04-01T11:36:48.509Z,974.40
2023-04-01T11:37:48.323Z,974.41
2023-04-01T11:38:48.543Z,974.39
2023-04-01T11:39:48.164Z,974.40
2023-04-01T18:27:21.550Z,977.58
2023-04-01T18:28:21.434Z,977.62
2023-04-01T18:29:21.356Z,977.61
2023-04-01T18:30:21.290Z,977.61
2023-04-01T18:31:21.242Z,977.64
2023-04-01T18:32:21.109Z,977.57
2023-04-01T18:33:21.136Z,977.66
2023-04-01T18:34:20.953Z,977.65
2023-04-01T18:35:20.872Z,977.66
2023-04-01T18:36:20.860Z,977.70
2023-04-01T18:37:20.751Z,977.68
2023-04-01T18:38:20.620Z,977.69
2023-04-01T18:39:20.544Z,977.74
